Aérodrome :
LOGIN :

S'inscrire | Disclaimer

   EN    FR    IT 

 










Légende :    VFR   VFR Marginal   IFR   IFR Intensif   IFR Très Intensif
Visi : 
Plafond : 
>= 8 km
>= 3000ft
5 à 8 km
1000 à 3000 ft
1500m à 5 km
500 à 1000 ft
800 à 1500m
200 à 500 ft
< 800m
< 200 ft
Symboles :   Orages  Brouillard  Fortes neiges  Fortes précipitations  Vent > 20 kt
SIGMETs :   Divers  Orages  Givrage  Turbulence  Onde Orograph.  Cendres Volcan.






- Altitude de l'aérodrome : 16 ft
- Code IATA : EAS


LESO - San Sebastian Fuenterrabia

DERNIER METAR :
  • 022000Z AUTO VRB02KT CAVOK 10/05 Q1019

METARs EXPIRÉS :
  • 021930Z VRB02KT CAVOK 10/05 Q1018
  • 021900Z 29003KT 250V320 9999 FEW035 11/05 Q1018
  • 021830Z 29003KT 250V010 9999 FEW030 12/05 Q1017
  • 021800Z 32005KT 280V020 9999 FEW030 12/05 Q1017
  • 021730Z 31004KT 250V020 9999 FEW027 13/05 Q1017
  • 021700Z 32004KT 270V360 9999 FEW024 13/07 Q1016

TAF TAF LESO
Valide du 02 à 18h jusqu'au 03 à 18h UTC


021700Z 0218/0318 32006KT 9999 SCT025 TX14/0313Z TN06/0302Z
TEMPO 0222/0310 26010KT
TEMPO 0310/0318 02010KT



MET'MAP, la Météo Aéronautique d'un coup d'oeil ! - Copyright ORBIFLY Décembre 2007 - Disclaimer

ORBIFLY MET'MAP TEAM :

Programmation & Développement : Alexandra Zaïnal
Sur une idée originale de : Baudouin d'Aumeries
Assistance à la programmation : Marc-Olivier Méhu
Soutien technique & logistique : Manuel Goepfert

Contact : metmap@orbifly.com




SOURCES & CREDITS :

   NOAA